AirNav   Everest Fuels
 
 1702 users online  

0LL3 Koenig Airport
Jerseyville, Illinois, USA

GOING TO JERSEYVILLE?


FAA INFORMATION EFFECTIVE 07 OCTOBER 2021

Location

FAA Identifier: 0LL3
Lat/Long: 39-03-18.1700N 090-20-31.4100W
39-03.302833N 090-20.523500W
39.0550472,-90.3420583
(estimated)
Elevation: 614 ft. / 187.1 m (surveyed)
Variation: 02E (1985)
From city: 4 miles S of JERSEYVILLE, IL
Time zone: UTC -5 (UTC -6 during Standard Time)
Zip code: 62052

Airport Operations

Airport use: Private use. Permission required prior to landing
Activation date: 05/1968
Sectional chart:  (ALSO KANSAS CITY SECTIONAL CHART.)
Control tower: no
ARTCC: KANSAS CITY CENTER
FSS: SAINT LOUIS FLIGHT SERVICE STATION
Attendance: UNATNDD
Wind indicator: yes
Segmented circle: yes

Airport Communications

WX ASOS at SET (9 nm SW): 118.075 (636-250-4590)
WX AWOS-3 at ALN (17 nm SE): 128.0 (618-259-7231)
WX ASOS at STL (18 nm S): PHONE 314-890-4790

Nearby radio navigation aids

VOR radial/distance  VOR name  Freq  Var
STLr028/13.4ST LOUIS VORTAC117.4001E
TOYr310/27.4TROY VORTAC116.0004E
FTZr049/36.5FORISTELL VORTAC110.8005E

 
NDB name  Hdg/Dist  Freq  Var  ID
CIVIC MEMORIAL307/16.526301WCVM -.-. ...- --

Airport Services

Airframe service: NONE
Powerplant service: NONE

Runway Information

Runway 6/24

Dimensions: 2000 x 100 ft. / 610 x 30 m
Surface: turf
RUNWAY 6  RUNWAY 24
Traffic pattern: rightleft

Airport Ownership and Management from official FAA records

Ownership: Privately-owned
Owner: WILLIAM E. KOENIG
25486 DOW RD
DOW, IL 62022
Phone 618-885-5415

Airport Operational Statistics

Aircraft based on the field: 3
Single engine airplanes: 2
Ultralights: 1
    

Additional Remarks

FOR CD CTC ST LOUIS APCH AT 314-890-1018.

Instrument Procedures

There are no published instrument procedures at 0LL3.

Some nearby airports with instrument procedures:

KSET - St Charles County Smartt Airport (9 nm SW)
KALN - St Louis Regional Airport (17 nm SE)
KSTL - St Louis Lambert International Airport (18 nm S)
1H0 - Creve Coeur Airport (21 nm S)
KSUS - Spirit of St Louis Airport (28 nm SW)
 
Loc | Ops | Rwys | IFR | FBO | Links
Com | Nav | Svcs | Stats | Notes
Area around 0LL3 (Koenig Airport)
 
Road maps at: MapQuest Bing Google
 
Aerial photo
No photo
 
Sectional chart

 
Airport distance calculator
Flying to Koenig Airport? Find the distance to fly.

From to 0LL3

Sunrise and sunset
Times for 19-Oct-2021
 Local
(UTC-5)
 Zulu
(UTC)
Morning civil twilight06:4911:49
Sunrise07:1612:16
Sunset18:1723:17
Evening civil twilight18:4423:44

Current date and time
Zulu (UTC)  19-Oct-2021 16:15:37
Local (UTC-5)  19-Oct-2021 11:15:37
 
METAR
KSET 
8nm SW 
191554Z AUTO 18007KT 10SM CLR 17/08 A3015 RMK AO2 SLP207 T01720078
KALN 
18nm SE 
191550Z 17010KT 10SM CLR 17/08 A3017
KSTL 
18nm S 
191551Z 18008KT 10SM FEW180 BKN220 18/08 A3016 RMK AO2 SLP208 T01780078
TAF
KSTL 
18nm S 
191120Z 1912/2018 16006KT P6SM BKN250 FM191600 18010G17KT P6SM SCT250 FM200000 15007KT P6SM SCT250 FM201500 19008KT P6SM BKN120
NOTAMs
Click for the latest NOTAMs
NOTAMs are issued by the DoD/FAA and will open in a separate window not controlled by AirNav.

 

 
 

Would you like to see your business listed on this page?

 If your business provides an interesting product or service to pilots, flight crews, aircraft, or users of the Koenig Airport, you should consider listing it here.  To start the listing process, click on the button below
 
Add a business
 

Other Pages about Koenig Airport

Update a link
 
Copyright © AirNav, LLC. All rights reserved. Privacy Policy  Contact